Terminal Aerodrome Forecast
Issued by NWS Atlanta, GA

Home | Current Version | Previous Version | Text Only | Print | Product List | Glossary On
Versions: 1 2 3 4 5 6 7 8 9 10 11 12 13 14 15 16 17 18 19 20
694
FTUS42 KFFC 250538
TAFCSG
TAF
KCSG 250538Z 2506/2606 22005KT P6SM FEW060
     FM251000 26007KT P6SM BKN021
      TEMPO 2510/2513 5SM -SHRA BR BKN012
     FM251400 29010G20KT P6SM SCT030
     FM251600 30014G22KT P6SM FEW040
     FM251800 31014G24KT P6SM SKC
     FM260000 33008KT P6SM SKC=

USA.gov is the U.S. government's official web portal to all federal, state and local government web resources and services.